createdAt,value
2018-05-23T00:02:11.335Z,5.07
2018-05-23T00:04:39.733Z,4.37
2018-05-23T00:07:07.802Z,5.83
2018-05-23T00:09:36.122Z,3.83
2018-05-23T00:12:04.296Z,5.27
2018-05-23T00:14:32.886Z,5.27
2018-05-23T00:17:00.668Z,7.67
2018-05-23T00:19:28.479Z,3.50
2018-05-23T00:21:57.204Z,8.00
2018-05-23T00:24:25.047Z,13.10
2018-05-23T00:26:52.923Z,4.07
2018-05-23T00:29:21.268Z,7.47
2018-05-23T00:31:49.991Z,7.73
2018-05-23T00:34:17.863Z,6.83
2018-05-23T00:36:46.290Z,6.53
2018-05-23T00:39:14.268Z,8.07
2018-05-23T00:41:42.087Z,8.60
2018-05-23T00:44:10.317Z,7.03
2018-05-23T00:46:38.081Z,7.00
2018-05-23T00:49:05.879Z,4.90
2018-05-23T00:51:33.973Z,8.03
2018-05-23T00:54:01.813Z,5.43
2018-05-23T00:56:29.782Z,8.33
2018-05-23T00:58:58.160Z,8.37
2018-05-23T01:01:26.340Z,5.33
2018-05-23T01:03:54.274Z,7.17
2018-05-23T01:06:22.577Z,6.20
2018-05-23T01:08:50.606Z,9.33
2018-05-23T01:11:18.720Z,7.00
2018-05-23T01:13:47.048Z,6.93
2018-05-23T01:16:15.374Z,8.50
2018-05-23T01:18:43.345Z,6.47
2018-05-23T01:21:11.743Z,7.53
2018-05-23T01:23:40.001Z,5.37
2018-05-23T01:26:07.848Z,6.20
2018-05-23T01:28:35.840Z,5.33
2018-05-23T01:31:04.008Z,7.93
2018-05-23T01:33:32.046Z,7.43
2018-05-23T01:36:00.254Z,9.50
2018-05-23T01:38:28.427Z,5.00
2018-05-23T01:40:56.297Z,6.87
2018-05-23T01:43:24.365Z,10.63
2018-05-23T01:45:52.738Z,8.73
2018-05-23T01:48:20.792Z,7.23
2018-05-23T01:50:49.290Z,7.57
2018-05-23T01:53:17.263Z,5.53
2018-05-23T01:55:45.183Z,5.73
2018-05-23T01:58:13.302Z,7.10
2018-05-23T02:00:41.375Z,5.87
2018-05-23T02:03:09.240Z,8.43
2018-05-23T02:05:37.310Z,7.47
2018-05-23T02:08:05.386Z,7.57
2018-05-23T02:10:33.143Z,7.10
2018-05-23T02:13:01.387Z,7.83
2018-05-23T02:15:29.729Z,5.90
2018-05-23T02:17:57.874Z,7.23
2018-05-23T02:20:25.960Z,8.73
2018-05-23T02:22:53.975Z,9.93
2018-05-23T02:25:21.981Z,7.07
2018-05-23T02:27:50.154Z,7.13
2018-05-23T02:30:18.244Z,7.43
2018-05-23T02:32:46.094Z,7.27
2018-05-23T02:35:14.129Z,8.93
2018-05-23T02:37:42.161Z,6.90
2018-05-23T02:40:09.887Z,14.27
2018-05-23T02:42:38.178Z,26.93
2018-05-23T02:45:06.319Z,56.03
2018-05-23T02:47:34.108Z,14.73
2018-05-23T02:50:02.287Z,16.60
2018-05-23T02:52:30.489Z,20.00
2018-05-23T02:54:58.327Z,10.47
2018-05-23T02:57:26.495Z,10.23
2018-05-23T02:59:54.800Z,7.27
2018-05-23T03:02:22.640Z,7.10
2018-05-23T03:04:50.938Z,10.93
2018-05-23T03:07:18.983Z,9.10
2018-05-23T03:09:46.755Z,8.23
2018-05-23T03:12:14.999Z,9.37
2018-05-23T03:14:43.367Z,6.47
2018-05-23T03:17:11.239Z,7.80
2018-05-23T03:19:39.558Z,7.57
2018-05-23T03:22:07.642Z,5.83
2018-05-23T03:24:35.585Z,7.53
2018-05-23T03:27:03.971Z,7.70
2018-05-23T03:29:31.917Z,11.63
2018-05-23T03:31:59.719Z,9.83
2018-05-23T03:34:28.593Z,7.53
2018-05-23T03:36:56.557Z,6.57
2018-05-23T03:39:24.422Z,5.40
2018-05-23T03:41:52.728Z,7.80
2018-05-23T03:44:20.874Z,7.53
2018-05-23T03:46:48.753Z,7.80
2018-05-23T03:49:16.913Z,6.20
2018-05-23T03:51:45.169Z,11.93
2018-05-23T03:54:13.056Z,9.17
2018-05-23T03:56:41.233Z,13.77
2018-05-23T03:59:09.404Z,11.20
2018-05-23T04:01:49.454Z,6.67
2018-05-23T04:04:29.100Z,9.80
2018-05-23T04:10:01.060Z,12.70
2018-05-23T04:12:29.732Z,10.07
2018-05-23T04:14:58.042Z,7.77
2018-05-23T04:17:25.922Z,8.37
2018-05-23T04:19:54.298Z,8.77
2018-05-23T04:22:22.765Z,9.53
2018-05-23T04:24:50.759Z,7.30
2018-05-23T04:27:18.911Z,11.73
2018-05-23T04:29:46.943Z,8.07
2018-05-23T04:32:14.866Z,14.40
2018-05-23T04:34:42.918Z,9.63
2018-05-23T04:37:11.406Z,8.07
2018-05-23T04:39:39.278Z,6.63
2018-05-23T04:42:07.336Z,9.87
2018-05-23T04:44:35.639Z,8.43
2018-05-23T04:47:03.989Z,11.03
2018-05-23T04:49:32.680Z,11.03
2018-05-23T04:52:00.444Z,14.83
2018-05-23T04:54:28.460Z,16.20
2018-05-23T04:56:56.606Z,10.87
2018-05-23T04:59:24.456Z,12.97
2018-05-23T05:01:52.829Z,18.73
2018-05-23T05:04:21.111Z,18.20
2018-05-23T05:06:48.973Z,16.67
2018-05-23T05:09:17.099Z,16.07
2018-05-23T05:11:46.417Z,13.47
2018-05-23T05:14:14.410Z,18.60
2018-05-23T05:16:43.124Z,16.47
2018-05-23T05:19:11.372Z,15.43
2018-05-23T05:21:39.345Z,16.07
2018-05-23T05:24:07.517Z,20.03
2018-05-23T05:26:35.802Z,21.33
2018-05-23T05:29:03.767Z,26.87
2018-05-23T05:31:32.104Z,22.27
2018-05-23T05:34:00.522Z,15.40
2018-05-23T05:36:28.895Z,13.93
2018-05-23T05:38:57.230Z,27.90
2018-05-23T05:41:25.339Z,18.60
2018-05-23T05:43:53.178Z,14.80
2018-05-23T05:46:21.346Z,16.27
2018-05-23T05:48:49.890Z,22.63
2018-05-23T05:51:17.704Z,13.77
2018-05-23T05:53:45.617Z,14.43
2018-05-23T05:56:14.214Z,12.73
2018-05-23T05:58:42.413Z,11.37
2018-05-23T06:01:11.348Z,11.70
2018-05-23T06:03:39.850Z,9.83
2018-05-23T06:06:07.744Z,12.73
2018-05-23T06:08:35.588Z,12.97
2018-05-23T06:11:04.874Z,8.83
2018-05-23T06:13:32.697Z,11.07
2018-05-23T06:16:00.711Z,9.63
2018-05-23T06:18:29.212Z,18.50
2018-05-23T06:20:57.256Z,11.27
2018-05-23T06:23:25.116Z,17.37
2018-05-23T06:25:53.596Z,18.80
2018-05-23T06:28:21.715Z,18.13
2018-05-23T06:30:49.635Z,17.90
2018-05-23T06:33:17.908Z,22.03
2018-05-23T06:35:46.003Z,21.50
2018-05-23T06:38:14.263Z,27.47
2018-05-23T06:40:42.434Z,19.77
2018-05-23T06:43:10.298Z,20.87
2018-05-23T06:45:38.639Z,21.67
2018-05-23T06:48:06.851Z,14.20
2018-05-23T06:50:34.729Z,23.00
2018-05-23T06:53:02.792Z,15.37
2018-05-23T06:55:30.963Z,22.67
2018-05-23T06:57:58.881Z,22.20
2018-05-23T07:00:27.749Z,18.47
2018-05-23T07:02:55.795Z,19.97
2018-05-23T07:05:23.582Z,8.50
2018-05-23T07:07:51.628Z,5.83
2018-05-23T07:10:19.696Z,8.33
2018-05-23T07:12:47.568Z,6.37
2018-05-23T07:15:15.843Z,8.13
2018-05-23T07:17:44.114Z,5.37
2018-05-23T07:20:12.398Z,8.03
2018-05-23T07:22:40.674Z,8.13
2018-05-23T07:25:08.975Z,4.43
2018-05-23T07:27:37.016Z,3.43
2018-05-23T07:30:04.876Z,2.70
2018-05-23T07:32:33.106Z,4.20
2018-05-23T07:35:01.464Z,3.40
2018-05-23T07:37:29.400Z,5.03
2018-05-23T07:39:57.746Z,8.10
2018-05-23T07:42:26.057Z,4.97
2018-05-23T07:44:53.922Z,3.07
2018-05-23T07:47:22.402Z,3.70
2018-05-23T07:49:50.474Z,4.87
2018-05-23T07:52:18.505Z,7.27
2018-05-23T07:54:46.991Z,22.20
2018-05-23T07:57:17.251Z,4.40
2018-05-23T07:59:49.314Z,4.10
2018-05-23T08:02:18.189Z,3.87
2018-05-23T08:04:45.896Z,2.90
2018-05-23T08:07:13.780Z,7.80
2018-05-23T08:09:42.313Z,4.63
2018-05-23T08:12:14.481Z,15.73
2018-05-23T08:14:42.328Z,4.20
2018-05-23T08:17:10.857Z,3.90
2018-05-23T08:19:39.028Z,5.17
2018-05-23T08:22:06.899Z,11.90
2018-05-23T08:24:35.271Z,4.27
2018-05-23T08:27:03.196Z,4.40
2018-05-23T08:29:31.521Z,18.23
2018-05-23T08:32:00.280Z,3.60
2018-05-23T08:34:28.148Z,4.87
2018-05-23T08:36:56.213Z,2.23
2018-05-23T08:39:24.423Z,4.13
2018-05-23T08:41:52.565Z,6.37
2018-05-23T08:44:20.942Z,3.90
2018-05-23T08:46:49.628Z,4.80
2018-05-23T08:49:17.428Z,2.50
2018-05-23T08:51:45.739Z,2.90
2018-05-23T08:54:14.170Z,3.50
2018-05-23T08:56:42.097Z,3.83
2018-05-23T08:59:10.330Z,3.27
2018-05-23T09:01:38.670Z,2.23
2018-05-23T09:04:06.716Z,4.00
2018-05-23T09:06:34.725Z,3.90
2018-05-23T09:09:03.027Z,4.53
2018-05-23T09:11:31.054Z,6.13
2018-05-23T09:13:58.953Z,3.50
2018-05-23T09:16:27.126Z,5.03
2018-05-23T09:18:55.480Z,2.67
2018-05-23T09:21:24.043Z,5.83
2018-05-23T09:23:53.157Z,2.73
2018-05-23T09:26:21.174Z,7.00
2018-05-23T09:28:49.362Z,3.60
2018-05-23T09:31:18.214Z,3.07
2018-05-23T09:33:46.029Z,10.03
2018-05-23T09:36:13.820Z,4.70
2018-05-23T09:38:42.807Z,7.13
2018-05-23T09:41:10.739Z,4.67
2018-05-23T09:43:38.549Z,2.57
2018-05-23T09:46:07.135Z,5.70
2018-05-23T09:48:35.202Z,5.57
2018-05-23T09:51:02.989Z,2.17
2018-05-23T09:53:32.661Z,4.63
2018-05-23T09:56:00.958Z,3.43
2018-05-23T09:58:29.016Z,5.00
2018-05-23T10:00:58.625Z,6.30
2018-05-23T10:03:27.003Z,2.40
2018-05-23T10:05:54.870Z,7.77
2018-05-23T10:08:23.238Z,5.10
2018-05-23T10:10:51.346Z,3.60
2018-05-23T10:13:19.333Z,4.53
2018-05-23T10:15:47.772Z,3.90
2018-05-23T10:18:15.801Z,5.80
2018-05-23T10:20:43.605Z,6.20
2018-05-23T10:23:12.081Z,5.17
2018-05-23T10:25:40.155Z,5.23
2018-05-23T10:28:08.025Z,5.83
2018-05-23T10:30:36.300Z,6.13
2018-05-23T10:33:05.122Z,3.50
2018-05-23T10:35:33.124Z,8.97
2018-05-23T10:38:01.876Z,5.17
2018-05-23T10:40:30.227Z,7.47
2018-05-23T10:42:58.161Z,4.10
2018-05-23T10:45:27.181Z,2.00
2018-05-23T10:47:55.357Z,2.53
2018-05-23T10:50:24.710Z,3.60
2018-05-23T10:52:53.648Z,4.83
2018-05-23T10:55:21.767Z,3.33
2018-05-23T10:57:49.719Z,6.13
2018-05-23T11:00:18.822Z,4.90
2018-05-23T11:02:47.111Z,4.40
2018-05-23T11:05:15.231Z,4.50
2018-05-23T11:07:43.806Z,4.40
2018-05-23T11:10:11.650Z,4.03
2018-05-23T11:12:39.588Z,5.17
2018-05-23T11:15:08.114Z,2.57
2018-05-23T11:17:36.307Z,3.63
2018-05-23T11:20:04.660Z,7.80
2018-05-23T11:22:33.471Z,3.27
2018-05-23T11:25:01.576Z,5.27
2018-05-23T11:27:29.487Z,5.00
2018-05-23T11:29:57.919Z,7.43
2018-05-23T11:32:25.788Z,4.37
2018-05-23T11:34:53.727Z,2.90
2018-05-23T11:37:22.445Z,4.97
2018-05-23T11:39:50.527Z,3.07
2018-05-23T11:42:18.281Z,3.53
2018-05-23T11:44:46.622Z,4.53
2018-05-23T11:47:14.696Z,5.50
2018-05-23T11:49:42.717Z,7.63
2018-05-23T11:52:11.532Z,7.37
2018-05-23T11:54:39.932Z,6.57
2018-05-23T11:57:08.412Z,2.60
2018-05-23T11:59:37.064Z,4.10
2018-05-23T12:02:05.586Z,8.37
2018-05-23T12:04:33.652Z,9.87
2018-05-23T12:07:02.131Z,5.60
2018-05-23T12:09:29.995Z,6.80
2018-05-23T12:11:58.272Z,3.90
2018-05-23T12:14:26.548Z,4.70
2018-05-23T12:16:54.518Z,5.73
2018-05-23T12:19:22.590Z,3.30
2018-05-23T12:21:50.738Z,4.30
2018-05-23T12:24:18.639Z,2.17
2018-05-23T12:26:46.815Z,4.03
2018-05-23T12:29:15.309Z,5.97
2018-05-23T12:31:43.613Z,6.30
2018-05-23T12:34:11.541Z,4.13
2018-05-23T12:36:40.236Z,3.63
2018-05-23T12:39:08.042Z,4.33
2018-05-23T12:41:36.131Z,2.70
2018-05-23T12:44:04.993Z,2.40
2018-05-23T12:46:32.907Z,8.87
2018-05-23T12:49:00.776Z,2.93
2018-05-23T12:51:29.563Z,7.63
2018-05-23T12:53:57.430Z,12.33
2018-05-23T12:56:25.404Z,4.23
2018-05-23T12:58:54.493Z,6.70
2018-05-23T13:01:22.362Z,8.70
2018-05-23T13:03:50.227Z,7.70
2018-05-23T13:06:19.129Z,3.73
2018-05-23T13:08:47.089Z,4.97
2018-05-23T13:11:15.576Z,4.93
2018-05-23T13:13:44.268Z,4.23
2018-05-23T13:16:12.197Z,3.53
2018-05-23T13:18:40.086Z,7.83
2018-05-23T13:21:08.683Z,3.33
2018-05-23T13:23:36.463Z,8.67
2018-05-23T13:26:04.338Z,5.70
2018-05-23T13:28:32.848Z,5.03
2018-05-23T13:31:00.692Z,5.30
2018-05-23T13:33:28.616Z,2.73
2018-05-23T13:35:57.057Z,6.77
2018-05-23T13:38:24.859Z,4.93
2018-05-23T13:40:52.710Z,6.27
2018-05-23T13:43:21.106Z,5.23
2018-05-23T13:45:49.076Z,8.17
2018-05-23T13:48:17.351Z,6.97
2018-05-23T13:50:45.961Z,8.20
2018-05-23T13:53:14.294Z,5.73
2018-05-23T13:55:42.172Z,3.33
2018-05-23T13:58:10.585Z,4.13
2018-05-23T14:00:38.518Z,5.77
2018-05-23T14:03:06.640Z,4.87
2018-05-23T14:05:35.593Z,3.83
2018-05-23T14:08:03.461Z,2.20
2018-05-23T14:10:31.731Z,4.43
2018-05-23T14:13:00.000Z,4.07
2018-05-23T14:15:27.978Z,4.67
2018-05-23T14:17:56.254Z,2.50
2018-05-23T14:20:24.508Z,3.83
2018-05-23T14:22:52.399Z,6.13
2018-05-23T14:25:20.669Z,4.23
2018-05-23T14:27:48.847Z,2.40
2018-05-23T14:30:16.627Z,4.83
2018-05-23T14:32:44.788Z,6.50
2018-05-23T14:35:13.192Z,3.73
2018-05-23T14:37:41.032Z,4.13
2018-05-23T14:40:09.178Z,4.67
2018-05-23T14:42:37.689Z,4.47
2018-05-23T14:45:05.583Z,6.13
2018-05-23T14:47:33.922Z,5.10
2018-05-23T14:50:02.232Z,3.67
2018-05-23T14:52:30.116Z,3.30
2018-05-23T14:54:58.172Z,3.60
2018-05-23T14:57:26.421Z,3.70
2018-05-23T14:59:54.767Z,4.90
2018-05-23T15:02:23.491Z,3.27
2018-05-23T15:04:51.863Z,3.83
2018-05-23T15:07:20.234Z,5.37
2018-05-23T15:09:48.486Z,3.10
2018-05-23T15:12:16.766Z,4.63
2018-05-23T15:14:44.862Z,1.70
2018-05-23T15:17:12.933Z,4.27
2018-05-23T15:19:41.438Z,2.37
2018-05-23T15:22:09.847Z,4.30
2018-05-23T15:24:37.820Z,2.93
2018-05-23T15:27:06.117Z,9.13
2018-05-23T15:29:34.825Z,4.00
2018-05-23T15:32:03.171Z,4.30
2018-05-23T15:34:31.581Z,4.70
2018-05-23T15:36:59.448Z,6.60
2018-05-23T15:39:27.858Z,3.53
2018-05-23T15:41:56.309Z,4.37
2018-05-23T15:44:24.181Z,3.43
2018-05-23T15:46:52.355Z,3.03
2018-05-23T15:49:20.692Z,4.00
2018-05-23T15:51:48.723Z,5.43
2018-05-23T15:54:16.683Z,2.93
2018-05-23T15:56:45.043Z,5.93
2018-05-23T15:59:13.268Z,5.10
2018-05-23T16:01:41.182Z,4.03
2018-05-23T16:04:09.769Z,7.30
2018-05-23T16:06:37.939Z,9.17
2018-05-23T16:09:06.080Z,4.60
2018-05-23T16:11:34.505Z,6.53
2018-05-23T16:14:02.302Z,5.50
2018-05-23T16:16:30.629Z,2.43
2018-05-23T16:18:59.118Z,4.43
2018-05-23T16:21:27.006Z,5.10
2018-05-23T16:23:54.890Z,2.83
2018-05-23T16:26:23.534Z,7.47
2018-05-23T16:28:51.301Z,4.33
2018-05-23T16:31:19.370Z,5.60
2018-05-23T16:33:47.508Z,4.40
2018-05-23T16:36:15.388Z,3.53
2018-05-23T16:38:43.589Z,4.53
2018-05-23T16:41:11.969Z,2.03
2018-05-23T16:43:39.759Z,5.23
2018-05-23T16:46:07.718Z,2.60
2018-05-23T16:48:36.301Z,2.57
2018-05-23T16:51:04.147Z,5.97
2018-05-23T16:53:32.292Z,4.90
2018-05-23T16:56:00.599Z,3.60
2018-05-23T16:58:28.545Z,4.47
2018-05-23T17:00:56.742Z,4.83
2018-05-23T17:03:24.852Z,3.30
2018-05-23T17:05:52.904Z,7.67
2018-05-23T17:08:20.895Z,5.43
2018-05-23T17:10:49.123Z,7.67
2018-05-23T17:13:17.061Z,3.70
2018-05-23T17:15:45.370Z,5.40
2018-05-23T17:18:13.748Z,4.27
2018-05-23T17:20:41.584Z,3.87
2018-05-23T17:23:09.834Z,11.07
2018-05-23T17:25:38.266Z,5.67
2018-05-23T17:28:06.253Z,3.27
2018-05-23T17:30:34.410Z,4.13
2018-05-23T17:33:03.049Z,6.33
2018-05-23T17:35:31.188Z,5.13
2018-05-23T17:37:59.362Z,3.00
2018-05-23T17:40:27.830Z,5.13
2018-05-23T17:42:56.351Z,4.13
2018-05-23T17:45:24.648Z,4.43
2018-05-23T17:47:53.059Z,4.67
2018-05-23T17:50:21.666Z,3.77
2018-05-23T17:52:49.921Z,3.17
2018-05-23T17:55:18.370Z,5.37
2018-05-23T17:57:46.298Z,2.60
2018-05-23T18:00:14.366Z,5.53
2018-05-23T18:02:42.634Z,8.87
2018-05-23T18:05:10.533Z,5.03
2018-05-23T18:07:38.666Z,3.60
2018-05-23T18:10:06.839Z,4.53
2018-05-23T18:12:35.312Z,4.47
2018-05-23T18:15:03.655Z,2.40
2018-05-23T18:17:31.962Z,4.30
2018-05-23T18:19:59.832Z,2.87
2018-05-23T18:22:28.137Z,2.07
2018-05-23T18:24:56.670Z,5.13
2018-05-23T18:27:24.654Z,5.40
2018-05-23T18:29:52.788Z,4.73
2018-05-23T18:32:21.105Z,5.33
2018-05-23T18:34:49.488Z,3.90
2018-05-23T18:37:17.879Z,3.47
2018-05-23T18:39:46.069Z,3.57
2018-05-23T18:42:14.053Z,3.43
2018-05-23T18:44:42.377Z,4.13
2018-05-23T18:47:10.760Z,5.10
2018-05-23T18:49:38.906Z,3.27
2018-05-23T18:52:07.620Z,3.83
2018-05-23T18:54:36.160Z,6.83
2018-05-23T18:57:04.443Z,4.73
2018-05-23T18:59:32.723Z,5.33
2018-05-23T19:02:01.321Z,12.07
2018-05-23T19:04:29.179Z,3.77
2018-05-23T19:06:57.688Z,6.60
2018-05-23T19:09:26.064Z,3.50
2018-05-23T19:11:54.452Z,5.47
2018-05-23T19:14:22.925Z,4.33
2018-05-23T19:16:51.768Z,3.87
2018-05-23T19:19:19.679Z,4.97
2018-05-23T19:21:47.950Z,5.73
2018-05-23T19:24:16.542Z,3.10
2018-05-23T19:26:44.707Z,5.43
2018-05-23T19:29:12.798Z,5.40
2018-05-23T19:31:41.267Z,4.73
2018-05-23T19:34:09.416Z,2.93
2018-05-23T19:36:37.732Z,4.83
2018-05-23T19:39:06.491Z,5.17
2018-05-23T19:41:34.434Z,4.30
2018-05-23T19:44:02.906Z,3.80
2018-05-23T19:46:32.658Z,6.77
2018-05-23T19:49:00.831Z,4.70
2018-05-23T19:51:29.495Z,4.27
2018-05-23T19:53:58.008Z,3.90
2018-05-23T19:56:25.963Z,6.60
2018-05-23T19:58:53.955Z,6.63
2018-05-23T20:01:22.852Z,2.87
2018-05-23T20:03:50.903Z,3.57
2018-05-23T20:06:19.162Z,4.33
2018-05-23T20:08:47.600Z,2.67
2018-05-23T20:11:15.812Z,4.03
2018-05-23T20:13:44.059Z,3.40
2018-05-23T20:16:12.483Z,6.83
2018-05-23T20:18:40.540Z,5.87
2018-05-23T20:21:08.623Z,6.13
2018-05-23T20:23:36.913Z,3.80
2018-05-23T20:26:04.828Z,6.17
2018-05-23T20:28:32.949Z,5.83
2018-05-23T20:31:01.329Z,4.57
2018-05-23T20:33:29.392Z,4.80
2018-05-23T20:35:57.669Z,4.40
2018-05-23T20:38:26.177Z,6.10
2018-05-23T20:40:54.227Z,3.30
2018-05-23T20:43:22.664Z,5.50
2018-05-23T20:45:51.083Z,4.73
2018-05-23T20:48:19.353Z,4.97
2018-05-23T20:50:47.731Z,3.13
2018-05-23T20:53:16.471Z,6.70
2018-05-23T20:55:44.627Z,4.93
2018-05-23T20:58:12.930Z,5.53
2018-05-23T21:00:41.319Z,3.43
2018-05-23T21:03:09.319Z,5.20
2018-05-23T21:05:39.608Z,5.53
2018-05-23T21:08:08.223Z,5.40
2018-05-23T21:10:36.186Z,4.20
2018-05-23T21:13:04.285Z,4.27
2018-05-23T21:15:32.738Z,6.33
2018-05-23T21:18:00.609Z,4.87
2018-05-23T21:20:28.676Z,4.00
2018-05-23T21:22:56.959Z,4.70
2018-05-23T21:25:25.234Z,8.10
2018-05-23T21:27:53.532Z,4.30
2018-05-23T21:30:21.902Z,4.03
2018-05-23T21:32:50.852Z,5.03
2018-05-23T21:35:18.637Z,3.70
2018-05-23T21:37:46.879Z,3.80
2018-05-23T21:40:14.996Z,3.83
2018-05-23T21:42:42.851Z,4.30
2018-05-23T21:45:11.205Z,5.90
2018-05-23T21:47:39.137Z,5.17
2018-05-23T21:50:07.048Z,8.23
2018-05-23T21:52:35.443Z,5.67
2018-05-23T21:55:03.530Z,3.70
2018-05-23T21:57:31.380Z,3.70
2018-05-23T21:59:59.742Z,3.73
2018-05-23T22:02:27.731Z,7.70
2018-05-23T22:04:55.457Z,4.33
2018-05-23T22:07:23.872Z,4.00
2018-05-23T22:09:52.079Z,3.13
2018-05-23T22:12:19.912Z,8.13
2018-05-23T22:14:48.510Z,3.20
2018-05-23T22:17:16.670Z,2.73
2018-05-23T22:19:44.512Z,3.67
2018-05-23T22:22:12.820Z,5.37
2018-05-23T22:24:40.940Z,4.90
2018-05-23T22:27:08.793Z,5.43
2018-05-23T22:29:36.944Z,8.37
2018-05-23T22:32:04.973Z,4.30
2018-05-23T22:34:32.874Z,4.73
2018-05-23T22:37:00.979Z,6.50
2018-05-23T22:39:29.228Z,4.53
2018-05-23T22:41:57.179Z,7.87
2018-05-23T22:44:25.844Z,5.77
2018-05-23T22:46:53.833Z,5.27
2018-05-23T22:49:21.711Z,8.43
2018-05-23T22:51:50.181Z,9.00
2018-05-23T22:54:18.291Z,7.43
2018-05-23T22:56:46.033Z,7.70
2018-05-23T22:59:14.394Z,6.03
2018-05-23T23:01:42.665Z,11.83
2018-05-23T23:04:10.644Z,7.73
2018-05-23T23:06:39.118Z,6.33
2018-05-23T23:09:07.185Z,6.33
2018-05-23T23:11:34.953Z,8.47
2018-05-23T23:14:03.337Z,9.33
2018-05-23T23:16:31.248Z,12.70
2018-05-23T23:18:59.235Z,6.20
2018-05-23T23:21:27.774Z,6.80
2018-05-23T23:23:56.125Z,9.90
2018-05-23T23:26:23.986Z,11.30
2018-05-23T23:28:52.068Z,9.37
2018-05-23T23:31:19.945Z,11.77
2018-05-23T23:33:47.783Z,10.00
2018-05-23T23:36:16.174Z,9.70
2018-05-23T23:38:44.348Z,12.97
2018-05-23T23:41:12.214Z,9.10
2018-05-23T23:43:40.415Z,9.63
2018-05-23T23:46:08.803Z,12.03
2018-05-23T23:48:36.635Z,14.53
2018-05-23T23:51:04.760Z,13.43
2018-05-23T23:53:32.782Z,11.13
2018-05-23T23:56:00.648Z,8.73
2018-05-23T23:58:28.915Z,9.60
